sensor_id;sensor_type;location;lat;lon;timestamp;temperature;humidity
33023;DHT22;19390;51.460;5.710;2023-08-24T00:00:10;16.70;99.90
33023;DHT22;19390;51.460;5.710;2023-08-24T00:02:36;16.70;99.90
33023;DHT22;19390;51.460;5.710;2023-08-24T00:05:02;16.70;99.90
33023;DHT22;19390;51.460;5.710;2023-08-24T00:07:28;16.60;99.90
33023;DHT22;19390;51.460;5.710;2023-08-24T00:09:54;16.60;99.90
33023;DHT22;19390;51.460;5.710;2023-08-24T00:12:19;16.50;99.90
33023;DHT22;19390;51.460;5.710;2023-08-24T00:14:45;16.50;99.90
33023;DHT22;19390;51.460;5.710;2023-08-24T00:17:10;16.40;99.90
33023;DHT22;19390;51.460;5.710;2023-08-24T00:19:36;16.40;99.90
33023;DHT22;19390;51.460;5.710;2023-08-24T00:22:02;16.40;99.90
33023;DHT22;19390;51.460;5.710;2023-08-24T00:24:27;16.40;99.90
33023;DHT22;19390;51.460;5.710;2023-08-24T00:26:53;16.40;99.90
33023;DHT22;19390;51.460;5.710;2023-08-24T00:29:18;16.50;99.90
33023;DHT22;19390;51.460;5.710;2023-08-24T00:31:44;16.40;99.90
33023;DHT22;19390;51.460;5.710;2023-08-24T00:34:09;16.30;99.90
33023;DHT22;19390;51.460;5.710;2023-08-24T00:36:37;16.20;99.90
33023;DHT22;19390;51.460;5.710;2023-08-24T00:39:03;16.00;99.90
33023;DHT22;19390;51.460;5.710;2023-08-24T00:41:28;15.90;99.90
33023;DHT22;19390;51.460;5.710;2023-08-24T00:43:54;15.80;99.90
33023;DHT22;19390;51.460;5.710;2023-08-24T00:46:19;15.80;99.90
33023;DHT22;19390;51.460;5.710;2023-08-24T00:48:45;15.80;99.90
33023;DHT22;19390;51.460;5.710;2023-08-24T00:51:11;15.90;99.90
33023;DHT22;19390;51.460;5.710;2023-08-24T00:53:37;16.10;99.90
33023;DHT22;19390;51.460;5.710;2023-08-24T00:56:03;16.10;99.90
33023;DHT22;19390;51.460;5.710;2023-08-24T00:58:29;16.00;99.90
33023;DHT22;19390;51.460;5.710;2023-08-24T01:00:57;16.20;99.90
33023;DHT22;19390;51.460;5.710;2023-08-24T01:03:23;16.30;99.90
33023;DHT22;19390;51.460;5.710;2023-08-24T01:05:49;16.40;99.90
33023;DHT22;19390;51.460;5.710;2023-08-24T01:08:15;16.40;99.90
33023;DHT22;19390;51.460;5.710;2023-08-24T01:10:51;16.30;99.90
33023;DHT22;19390;51.460;5.710;2023-08-24T01:13:33;16.20;99.90
33023;DHT22;19390;51.460;5.710;2023-08-24T01:16:08;16.20;99.90
33023;DHT22;19390;51.460;5.710;2023-08-24T01:18:38;16.10;99.90
33023;DHT22;19390;51.460;5.710;2023-08-24T01:21:05;16.00;99.90
33023;DHT22;19390;51.460;5.710;2023-08-24T01:23:45;16.00;99.90
33023;DHT22;19390;51.460;5.710;2023-08-24T01:26:17;16.00;99.90
33023;DHT22;19390;51.460;5.710;2023-08-24T01:28:44;16.00;99.90
33023;DHT22;19390;51.460;5.710;2023-08-24T01:31:10;16.00;99.90
33023;DHT22;19390;51.460;5.710;2023-08-24T01:33:36;15.90;99.90
33023;DHT22;19390;51.460;5.710;2023-08-24T01:36:02;15.80;99.90
33023;DHT22;19390;51.460;5.710;2023-08-24T01:38:27;15.80;99.90
33023;DHT22;19390;51.460;5.710;2023-08-24T01:41:41;15.90;99.90
33023;DHT22;19390;51.460;5.710;2023-08-24T01:43:45;16.00;99.90
33023;DHT22;19390;51.460;5.710;2023-08-24T01:46:14;16.00;99.90
33023;DHT22;19390;51.460;5.710;2023-08-24T01:48:41;16.00;99.90
33023;DHT22;19390;51.460;5.710;2023-08-24T01:51:07;16.00;99.90
33023;DHT22;19390;51.460;5.710;2023-08-24T01:53:33;16.10;99.90
33023;DHT22;19390;51.460;5.710;2023-08-24T01:55:59;16.20;99.90
33023;DHT22;19390;51.460;5.710;2023-08-24T01:58:24;16.20;99.90
33023;DHT22;19390;51.460;5.710;2023-08-24T02:00:50;16.20;99.90
33023;DHT22;19390;51.460;5.710;2023-08-24T02:03:16;16.20;99.90
33023;DHT22;19390;51.460;5.710;2023-08-24T02:05:41;16.20;99.90
33023;DHT22;19390;51.460;5.710;2023-08-24T02:08:07;16.30;99.90
33023;DHT22;19390;51.460;5.710;2023-08-24T02:10:32;16.40;99.90
33023;DHT22;19390;51.460;5.710;2023-08-24T02:12:58;16.50;99.90
33023;DHT22;19390;51.460;5.710;2023-08-24T02:15:24;16.50;99.90
33023;DHT22;19390;51.460;5.710;2023-08-24T02:17:49;16.50;99.90
33023;DHT22;19390;51.460;5.710;2023-08-24T02:20:15;16.50;99.90
33023;DHT22;19390;51.460;5.710;2023-08-24T02:22:40;16.50;99.90
33023;DHT22;19390;51.460;5.710;2023-08-24T02:25:06;16.50;99.90
33023;DHT22;19390;51.460;5.710;2023-08-24T02:27:32;16.50;99.90
33023;DHT22;19390;51.460;5.710;2023-08-24T02:29:58;16.50;99.90
33023;DHT22;19390;51.460;5.710;2023-08-24T02:32:24;16.50;99.90
33023;DHT22;19390;51.460;5.710;2023-08-24T02:34:50;16.70;99.90
33023;DHT22;19390;51.460;5.710;2023-08-24T02:37:15;16.70;99.90
33023;DHT22;19390;51.460;5.710;2023-08-24T02:39:41;16.80;99.90
33023;DHT22;19390;51.460;5.710;2023-08-24T02:42:07;16.70;99.90
33023;DHT22;19390;51.460;5.710;2023-08-24T02:44:32;16.70;99.90
33023;DHT22;19390;51.460;5.710;2023-08-24T02:46:58;16.80;99.90
33023;DHT22;19390;51.460;5.710;2023-08-24T02:49:23;16.80;99.90
33023;DHT22;19390;51.460;5.710;2023-08-24T02:51:49;16.80;99.90
33023;DHT22;19390;51.460;5.710;2023-08-24T02:54:14;16.90;99.90
33023;DHT22;19390;51.460;5.710;2023-08-24T02:56:40;16.90;99.90
33023;DHT22;19390;51.460;5.710;2023-08-24T02:59:06;16.90;99.90
33023;DHT22;19390;51.460;5.710;2023-08-24T03:01:32;17.10;99.90
33023;DHT22;19390;51.460;5.710;2023-08-24T03:03:57;17.10;99.90
33023;DHT22;19390;51.460;5.710;2023-08-24T03:06:23;17.00;99.90
33023;DHT22;19390;51.460;5.710;2023-08-24T03:08:51;16.90;99.90
33023;DHT22;19390;51.460;5.710;2023-08-24T03:11:17;16.90;99.90
33023;DHT22;19390;51.460;5.710;2023-08-24T03:13:43;16.90;99.90
33023;DHT22;19390;51.460;5.710;2023-08-24T03:16:08;16.90;99.90
33023;DHT22;19390;51.460;5.710;2023-08-24T03:18:34;16.90;99.90
33023;DHT22;19390;51.460;5.710;2023-08-24T03:21:01;16.80;99.90
33023;DHT22;19390;51.460;5.710;2023-08-24T03:23:26;16.80;99.90
33023;DHT22;19390;51.460;5.710;2023-08-24T03:25:52;16.80;99.90
33023;DHT22;19390;51.460;5.710;2023-08-24T03:28:18;16.80;99.90
33023;DHT22;19390;51.460;5.710;2023-08-24T03:30:48;16.90;99.90
33023;DHT22;19390;51.460;5.710;2023-08-24T03:33:14;16.90;99.90
33023;DHT22;19390;51.460;5.710;2023-08-24T03:35:40;17.00;99.90
33023;DHT22;19390;51.460;5.710;2023-08-24T03:38:06;17.00;99.90
33023;DHT22;19390;51.460;5.710;2023-08-24T03:40:31;17.10;99.90
33023;DHT22;19390;51.460;5.710;2023-08-24T03:42:57;17.20;99.90
33023;DHT22;19390;51.460;5.710;2023-08-24T03:45:23;17.20;99.90
33023;DHT22;19390;51.460;5.710;2023-08-24T03:47:49;17.20;99.90
33023;DHT22;19390;51.460;5.710;2023-08-24T03:50:15;17.30;99.90
33023;DHT22;19390;51.460;5.710;2023-08-24T03:52:41;17.30;99.90
33023;DHT22;19390;51.460;5.710;2023-08-24T03:55:07;17.30;99.90
33023;DHT22;19390;51.460;5.710;2023-08-24T03:57:33;17.30;99.90
33023;DHT22;19390;51.460;5.710;2023-08-24T03:59:59;17.30;99.90
33023;DHT22;19390;51.460;5.710;2023-08-24T04:02:24;17.40;99.90
33023;DHT22;19390;51.460;5.710;2023-08-24T04:04:50;17.40;99.90
33023;DHT22;19390;51.460;5.710;2023-08-24T04:07:16;17.40;99.90
33023;DHT22;19390;51.460;5.710;2023-08-24T04:09:42;17.40;99.90
33023;DHT22;19390;51.460;5.710;2023-08-24T04:12:08;17.50;99.90
33023;DHT22;19390;51.460;5.710;2023-08-24T04:14:33;17.50;99.90
33023;DHT22;19390;51.460;5.710;2023-08-24T04:16:59;17.50;99.90
33023;DHT22;19390;51.460;5.710;2023-08-24T04:19:24;17.50;99.90
33023;DHT22;19390;51.460;5.710;2023-08-24T04:21:50;17.60;99.90
33023;DHT22;19390;51.460;5.710;2023-08-24T04:24:15;17.50;99.90
33023;DHT22;19390;51.460;5.710;2023-08-24T04:26:41;17.50;99.90
33023;DHT22;19390;51.460;5.710;2023-08-24T04:29:06;17.40;99.90
33023;DHT22;19390;51.460;5.710;2023-08-24T04:31:32;17.50;99.90
33023;DHT22;19390;51.460;5.710;2023-08-24T04:33:58;17.50;99.90
33023;DHT22;19390;51.460;5.710;2023-08-24T04:36:23;17.50;99.90
33023;DHT22;19390;51.460;5.710;2023-08-24T04:38:49;17.40;99.90
33023;DHT22;19390;51.460;5.710;2023-08-24T04:41:14;17.50;99.90
33023;DHT22;19390;51.460;5.710;2023-08-24T04:43:40;17.50;99.90
33023;DHT22;19390;51.460;5.710;2023-08-24T04:46:06;17.40;99.90
33023;DHT22;19390;51.460;5.710;2023-08-24T04:48:32;17.50;99.90
33023;DHT22;19390;51.460;5.710;2023-08-24T04:51:03;17.60;99.90
33023;DHT22;19390;51.460;5.710;2023-08-24T04:53:29;17.60;99.90
33023;DHT22;19390;51.460;5.710;2023-08-24T04:55:54;17.60;99.90
33023;DHT22;19390;51.460;5.710;2023-08-24T04:58:20;17.60;99.90
33023;DHT22;19390;51.460;5.710;2023-08-24T05:00:46;17.60;99.90
33023;DHT22;19390;51.460;5.710;2023-08-24T05:03:14;17.60;99.90
33023;DHT22;19390;51.460;5.710;2023-08-24T05:05:39;17.60;99.90
33023;DHT22;19390;51.460;5.710;2023-08-24T05:08:06;17.60;99.90
33023;DHT22;19390;51.460;5.710;2023-08-24T05:10:32;17.60;99.90
33023;DHT22;19390;51.460;5.710;2023-08-24T05:12:59;17.70;99.90
33023;DHT22;19390;51.460;5.710;2023-08-24T05:15:25;17.60;99.90
33023;DHT22;19390;51.460;5.710;2023-08-24T05:17:50;17.60;99.90
33023;DHT22;19390;51.460;5.710;2023-08-24T05:20:20;17.70;99.90
33023;DHT22;19390;51.460;5.710;2023-08-24T05:22:46;17.70;99.90
33023;DHT22;19390;51.460;5.710;2023-08-24T05:25:11;17.70;99.90
33023;DHT22;19390;51.460;5.710;2023-08-24T05:27:37;17.80;99.90
33023;DHT22;19390;51.460;5.710;2023-08-24T05:30:03;17.80;99.90
33023;DHT22;19390;51.460;5.710;2023-08-24T05:32:31;17.80;99.90
33023;DHT22;19390;51.460;5.710;2023-08-24T05:34:56;17.90;99.90
33023;DHT22;19390;51.460;5.710;2023-08-24T05:37:22;17.90;99.90
33023;DHT22;19390;51.460;5.710;2023-08-24T05:39:47;17.90;99.90
33023;DHT22;19390;51.460;5.710;2023-08-24T05:42:13;17.90;99.90
33023;DHT22;19390;51.460;5.710;2023-08-24T05:44:38;17.90;99.90
33023;DHT22;19390;51.460;5.710;2023-08-24T05:47:04;17.90;99.90
33023;DHT22;19390;51.460;5.710;2023-08-24T05:49:30;17.90;99.90
33023;DHT22;19390;51.460;5.710;2023-08-24T05:51:56;17.90;99.90
33023;DHT22;19390;51.460;5.710;2023-08-24T05:54:21;17.90;99.90
33023;DHT22;19390;51.460;5.710;2023-08-24T05:56:47;18.00;99.90
33023;DHT22;19390;51.460;5.710;2023-08-24T05:59:14;18.90;99.90
33023;DHT22;19390;51.460;5.710;2023-08-24T06:01:39;20.60;99.90
33023;DHT22;19390;51.460;5.710;2023-08-24T06:04:10;23.20;99.90
33023;DHT22;19390;51.460;5.710;2023-08-24T06:06:36;24.70;99.90
33023;DHT22;19390;51.460;5.710;2023-08-24T06:09:02;26.00;99.90
33023;DHT22;19390;51.460;5.710;2023-08-24T06:11:32;24.90;99.90
33023;DHT22;19390;51.460;5.710;2023-08-24T06:13:58;26.00;99.90
33023;DHT22;19390;51.460;5.710;2023-08-24T06:16:24;24.90;99.90
33023;DHT22;19390;51.460;5.710;2023-08-24T06:18:49;25.60;99.90
33023;DHT22;19390;51.460;5.710;2023-08-24T06:21:15;25.60;99.90
33023;DHT22;19390;51.460;5.710;2023-08-24T06:23:41;25.10;99.90
33023;DHT22;19390;51.460;5.710;2023-08-24T06:26:07;25.30;99.90
33023;DHT22;19390;51.460;5.710;2023-08-24T06:28:32;24.40;99.90
33023;DHT22;19390;51.460;5.710;2023-08-24T06:31:00;25.60;99.90
33023;DHT22;19390;51.460;5.710;2023-08-24T06:33:29;25.60;99.90
33023;DHT22;19390;51.460;5.710;2023-08-24T06:35:58;26.90;99.90
33023;DHT22;19390;51.460;5.710;2023-08-24T06:38:24;27.60;99.90
33023;DHT22;19390;51.460;5.710;2023-08-24T06:40:50;26.90;99.90
33023;DHT22;19390;51.460;5.710;2023-08-24T06:43:16;29.10;99.90
33023;DHT22;19390;51.460;5.710;2023-08-24T06:45:41;29.00;99.90
33023;DHT22;19390;51.460;5.710;2023-08-24T06:48:07;29.60;99.90
33023;DHT22;19390;51.460;5.710;2023-08-24T06:50:33;29.60;99.90
33023;DHT22;19390;51.460;5.710;2023-08-24T06:52:59;28.60;99.90
33023;DHT22;19390;51.460;5.710;2023-08-24T06:55:26;27.00;99.90
33023;DHT22;19390;51.460;5.710;2023-08-24T06:57:52;28.40;99.90
33023;DHT22;19390;51.460;5.710;2023-08-24T07:00:19;29.80;99.90
33023;DHT22;19390;51.460;5.710;2023-08-24T07:02:46;30.10;99.90
33023;DHT22;19390;51.460;5.710;2023-08-24T07:05:12;30.40;99.90
33023;DHT22;19390;51.460;5.710;2023-08-24T07:07:38;29.90;99.90
33023;DHT22;19390;51.460;5.710;2023-08-24T07:10:04;28.90;99.90
33023;DHT22;19390;51.460;5.710;2023-08-24T07:12:30;28.30;99.90
33023;DHT22;19390;51.460;5.710;2023-08-24T07:14:55;30.00;99.90
33023;DHT22;19390;51.460;5.710;2023-08-24T07:17:21;30.80;99.90
33023;DHT22;19390;51.460;5.710;2023-08-24T07:19:46;30.20;99.90
33023;DHT22;19390;51.460;5.710;2023-08-24T07:22:12;32.10;99.90
33023;DHT22;19390;51.460;5.710;2023-08-24T07:24:37;31.90;99.90
33023;DHT22;19390;51.460;5.710;2023-08-24T07:27:03;32.10;99.90
33023;DHT22;19390;51.460;5.710;2023-08-24T07:29:29;28.70;99.90
33023;DHT22;19390;51.460;5.710;2023-08-24T07:31:54;31.50;99.90
33023;DHT22;19390;51.460;5.710;2023-08-24T07:34:20;32.40;99.90
33023;DHT22;19390;51.460;5.710;2023-08-24T07:36:47;32.60;99.90
33023;DHT22;19390;51.460;5.710;2023-08-24T07:39:14;31.40;99.90
33023;DHT22;19390;51.460;5.710;2023-08-24T07:41:44;30.30;99.90
33023;DHT22;19390;51.460;5.710;2023-08-24T07:44:09;31.90;99.90
33023;DHT22;19390;51.460;5.710;2023-08-24T07:46:35;32.10;99.90
33023;DHT22;19390;51.460;5.710;2023-08-24T07:49:01;30.20;99.90
33023;DHT22;19390;51.460;5.710;2023-08-24T07:51:26;31.20;99.90
33023;DHT22;19390;51.460;5.710;2023-08-24T07:53:53;31.80;99.90
33023;DHT22;19390;51.460;5.710;2023-08-24T07:56:19;30.20;99.90
33023;DHT22;19390;51.460;5.710;2023-08-24T07:58:45;30.60;99.90
33023;DHT22;19390;51.460;5.710;2023-08-24T08:01:11;31.10;99.90
33023;DHT22;19390;51.460;5.710;2023-08-24T08:03:36;31.00;99.90
33023;DHT22;19390;51.460;5.710;2023-08-24T08:06:02;30.90;99.90
33023;DHT22;19390;51.460;5.710;2023-08-24T08:08:28;28.40;99.90
33023;DHT22;19390;51.460;5.710;2023-08-24T08:10:58;28.00;99.90
33023;DHT22;19390;51.460;5.710;2023-08-24T08:13:25;28.70;99.90
33023;DHT22;19390;51.460;5.710;2023-08-24T08:15:51;29.60;99.90
33023;DHT22;19390;51.460;5.710;2023-08-24T08:18:16;30.70;99.90
33023;DHT22;19390;51.460;5.710;2023-08-24T08:20:42;30.70;99.90
33023;DHT22;19390;51.460;5.710;2023-08-24T08:23:07;31.40;99.90
33023;DHT22;19390;51.460;5.710;2023-08-24T08:25:33;30.90;99.90
33023;DHT22;19390;51.460;5.710;2023-08-24T08:27:59;32.20;99.90
33023;DHT22;19390;51.460;5.710;2023-08-24T08:30:24;30.60;99.90
33023;DHT22;19390;51.460;5.710;2023-08-24T08:32:50;31.30;99.90
33023;DHT22;19390;51.460;5.710;2023-08-24T08:35:21;31.10;99.90
33023;DHT22;19390;51.460;5.710;2023-08-24T08:37:47;32.30;99.90
33023;DHT22;19390;51.460;5.710;2023-08-24T08:40:17;30.50;99.90
33023;DHT22;19390;51.460;5.710;2023-08-24T08:42:43;30.30;99.90
33023;DHT22;19390;51.460;5.710;2023-08-24T08:45:10;30.10;99.90
33023;DHT22;19390;51.460;5.710;2023-08-24T08:47:37;30.00;99.90
33023;DHT22;19390;51.460;5.710;2023-08-24T08:50:04;30.90;99.90
33023;DHT22;19390;51.460;5.710;2023-08-24T08:52:33;30.40;99.90
33023;DHT22;19390;51.460;5.710;2023-08-24T08:55:00;29.90;99.90
33023;DHT22;19390;51.460;5.710;2023-08-24T08:57:25;32.10;99.90
33023;DHT22;19390;51.460;5.710;2023-08-24T08:59:54;31.70;99.90
33023;DHT22;19390;51.460;5.710;2023-08-24T09:02:21;31.10;99.90
33023;DHT22;19390;51.460;5.710;2023-08-24T09:04:50;31.10;99.90
33023;DHT22;19390;51.460;5.710;2023-08-24T09:07:16;31.00;99.90
33023;DHT22;19390;51.460;5.710;2023-08-24T09:09:42;30.20;99.90
33023;DHT22;19390;51.460;5.710;2023-08-24T09:12:08;29.90;99.90
33023;DHT22;19390;51.460;5.710;2023-08-24T09:14:35;29.90;99.90
33023;DHT22;19390;51.460;5.710;2023-08-24T09:17:01;31.10;99.90
33023;DHT22;19390;51.460;5.710;2023-08-24T09:19:30;29.60;99.90
33023;DHT22;19390;51.460;5.710;2023-08-24T09:21:57;31.30;99.90
33023;DHT22;19390;51.460;5.710;2023-08-24T09:24:33;31.70;99.90
33023;DHT22;19390;51.460;5.710;2023-08-24T09:26:59;30.70;99.90
33023;DHT22;19390;51.460;5.710;2023-08-24T09:29:25;32.10;99.90
33023;DHT22;19390;51.460;5.710;2023-08-24T09:31:51;30.60;99.90
33023;DHT22;19390;51.460;5.710;2023-08-24T09:34:20;30.50;99.90
33023;DHT22;19390;51.460;5.710;2023-08-24T09:36:46;31.20;99.90
33023;DHT22;19390;51.460;5.710;2023-08-24T09:39:12;30.80;99.90
33023;DHT22;19390;51.460;5.710;2023-08-24T09:41:45;31.80;99.90
33023;DHT22;19390;51.460;5.710;2023-08-24T09:44:11;31.90;99.90
33023;DHT22;19390;51.460;5.710;2023-08-24T09:46:40;30.90;99.90
33023;DHT22;19390;51.460;5.710;2023-08-24T09:49:11;32.10;99.90
33023;DHT22;19390;51.460;5.710;2023-08-24T09:51:40;30.70;99.90
33023;DHT22;19390;51.460;5.710;2023-08-24T09:54:10;31.30;99.90
33023;DHT22;19390;51.460;5.710;2023-08-24T09:56:37;30.20;99.90
33023;DHT22;19390;51.460;5.710;2023-08-24T09:59:11;29.80;99.90
33023;DHT22;19390;51.460;5.710;2023-08-24T10:01:41;30.50;99.90
33023;DHT22;19390;51.460;5.710;2023-08-24T10:04:09;30.80;99.90
33023;DHT22;19390;51.460;5.710;2023-08-24T10:06:36;30.70;99.90
33023;DHT22;19390;51.460;5.710;2023-08-24T10:09:03;29.70;99.90
33023;DHT22;19390;51.460;5.710;2023-08-24T10:11:35;29.40;99.90
33023;DHT22;19390;51.460;5.710;2023-08-24T10:14:10;28.60;99.90
33023;DHT22;19390;51.460;5.710;2023-08-24T10:16:38;27.90;99.90
33023;DHT22;19390;51.460;5.710;2023-08-24T10:19:05;27.90;99.90
33023;DHT22;19390;51.460;5.710;2023-08-24T10:21:31;27.40;99.90
33023;DHT22;19390;51.460;5.710;2023-08-24T10:23:57;27.90;99.90
33023;DHT22;19390;51.460;5.710;2023-08-24T10:26:24;28.40;99.90
33023;DHT22;19390;51.460;5.710;2023-08-24T10:28:53;27.90;99.90
33023;DHT22;19390;51.460;5.710;2023-08-24T10:31:19;27.40;99.90
33023;DHT22;19390;51.460;5.710;2023-08-24T10:33:46;27.10;99.90
33023;DHT22;19390;51.460;5.710;2023-08-24T10:36:15;28.20;99.90
33023;DHT22;19390;51.460;5.710;2023-08-24T10:38:42;27.70;99.90
33023;DHT22;19390;51.460;5.710;2023-08-24T10:41:08;28.10;99.90
33023;DHT22;19390;51.460;5.710;2023-08-24T10:43:37;27.50;99.90
33023;DHT22;19390;51.460;5.710;2023-08-24T10:46:03;27.20;99.90
33023;DHT22;19390;51.460;5.710;2023-08-24T10:48:57;27.00;99.90
33023;DHT22;19390;51.460;5.710;2023-08-24T10:51:18;26.80;99.90
33023;DHT22;19390;51.460;5.710;2023-08-24T10:53:58;26.50;99.90
33023;DHT22;19390;51.460;5.710;2023-08-24T10:56:35;26.20;99.90
33023;DHT22;19390;51.460;5.710;2023-08-24T10:59:17;26.30;99.90
33023;DHT22;19390;51.460;5.710;2023-08-24T11:01:55;26.20;99.90
33023;DHT22;19390;51.460;5.710;2023-08-24T11:04:20;26.10;99.90
33023;DHT22;19390;51.460;5.710;2023-08-24T11:06:57;25.90;99.90
33023;DHT22;19390;51.460;5.710;2023-08-24T11:09:24;26.00;99.90
33023;DHT22;19390;51.460;5.710;2023-08-24T11:12:06;26.20;99.90
33023;DHT22;19390;51.460;5.710;2023-08-24T11:14:51;26.30;99.90
33023;DHT22;19390;51.460;5.710;2023-08-24T11:17:21;26.20;99.90
33023;DHT22;19390;51.460;5.710;2023-08-24T11:19:52;26.90;99.90
33023;DHT22;19390;51.460;5.710;2023-08-24T11:22:18;26.70;99.90
33023;DHT22;19390;51.460;5.710;2023-08-24T11:24:44;26.60;99.90
33023;DHT22;19390;51.460;5.710;2023-08-24T11:27:10;26.70;99.90
33023;DHT22;19390;51.460;5.710;2023-08-24T11:29:36;26.50;99.90
33023;DHT22;19390;51.460;5.710;2023-08-24T11:32:02;27.00;99.90
33023;DHT22;19390;51.460;5.710;2023-08-24T11:34:28;26.50;99.90
33023;DHT22;19390;51.460;5.710;2023-08-24T11:36:54;26.90;99.90
33023;DHT22;19390;51.460;5.710;2023-08-24T11:39:21;26.40;99.90
33023;DHT22;19390;51.460;5.710;2023-08-24T11:42:06;26.10;99.90
33023;DHT22;19390;51.460;5.710;2023-08-24T11:44:48;25.70;99.90
33023;DHT22;19390;51.460;5.710;2023-08-24T11:47:14;25.70;99.90
33023;DHT22;19390;51.460;5.710;2023-08-24T11:49:40;25.60;99.90
33023;DHT22;19390;51.460;5.710;2023-08-24T11:52:06;25.50;99.90
33023;DHT22;19390;51.460;5.710;2023-08-24T11:54:32;25.60;99.90
33023;DHT22;19390;51.460;5.710;2023-08-24T11:56:58;25.80;99.90
33023;DHT22;19390;51.460;5.710;2023-08-24T11:59:24;25.40;99.90
33023;DHT22;19390;51.460;5.710;2023-08-24T12:01:51;25.10;99.90
33023;DHT22;19390;51.460;5.710;2023-08-24T12:04:18;25.20;99.90
33023;DHT22;19390;51.460;5.710;2023-08-24T12:06:44;25.20;99.90
33023;DHT22;19390;51.460;5.710;2023-08-24T12:09:09;25.30;99.90
33023;DHT22;19390;51.460;5.710;2023-08-24T12:11:36;25.60;99.90
33023;DHT22;19390;51.460;5.710;2023-08-24T12:14:02;25.30;99.90
33023;DHT22;19390;51.460;5.710;2023-08-24T12:16:31;25.40;99.90
33023;DHT22;19390;51.460;5.710;2023-08-24T12:18:59;25.80;99.90
33023;DHT22;19390;51.460;5.710;2023-08-24T12:21:26;26.70;99.90
33023;DHT22;19390;51.460;5.710;2023-08-24T12:24:03;28.80;99.90
33023;DHT22;19390;51.460;5.710;2023-08-24T12:26:33;30.00;99.90
33023;DHT22;19390;51.460;5.710;2023-08-24T12:29:03;28.60;99.90
33023;DHT22;19390;51.460;5.710;2023-08-24T12:31:31;27.00;99.90
33023;DHT22;19390;51.460;5.710;2023-08-24T12:34:05;25.50;99.90
33023;DHT22;19390;51.460;5.710;2023-08-24T12:36:32;25.90;99.90
33023;DHT22;19390;51.460;5.710;2023-08-24T12:38:58;25.90;99.90
33023;DHT22;19390;51.460;5.710;2023-08-24T12:41:24;26.50;99.90
33023;DHT22;19390;51.460;5.710;2023-08-24T12:43:51;26.80;99.90
33023;DHT22;19390;51.460;5.710;2023-08-24T12:46:17;26.90;99.90
33023;DHT22;19390;51.460;5.710;2023-08-24T12:48:43;26.50;99.90
33023;DHT22;19390;51.460;5.710;2023-08-24T12:51:08;26.20;99.90
33023;DHT22;19390;51.460;5.710;2023-08-24T12:53:34;26.00;99.90
33023;DHT22;19390;51.460;5.710;2023-08-24T12:55:59;25.70;99.90
33023;DHT22;19390;51.460;5.710;2023-08-24T12:58:25;25.60;99.90
33023;DHT22;19390;51.460;5.710;2023-08-24T13:00:50;26.10;99.90
33023;DHT22;19390;51.460;5.710;2023-08-24T13:03:16;25.90;99.90
33023;DHT22;19390;51.460;5.710;2023-08-24T13:05:42;25.60;99.90
33023;DHT22;19390;51.460;5.710;2023-08-24T13:08:07;25.70;99.90
33023;DHT22;19390;51.460;5.710;2023-08-24T13:10:33;25.70;99.90
33023;DHT22;19390;51.460;5.710;2023-08-24T13:12:59;25.30;99.90
33023;DHT22;19390;51.460;5.710;2023-08-24T13:15:25;25.20;99.90
33023;DHT22;19390;51.460;5.710;2023-08-24T13:17:51;25.00;99.90
33023;DHT22;19390;51.460;5.710;2023-08-24T13:20:17;25.20;99.90
33023;DHT22;19390;51.460;5.710;2023-08-24T13:22:42;25.20;99.90
33023;DHT22;19390;51.460;5.710;2023-08-24T13:25:08;25.40;99.90
33023;DHT22;19390;51.460;5.710;2023-08-24T13:27:34;24.90;99.90
33023;DHT22;19390;51.460;5.710;2023-08-24T13:30:00;25.00;99.90
33023;DHT22;19390;51.460;5.710;2023-08-24T13:32:26;25.10;99.90
33023;DHT22;19390;51.460;5.710;2023-08-24T13:34:52;25.20;99.90
33023;DHT22;19390;51.460;5.710;2023-08-24T13:37:18;25.20;99.90
33023;DHT22;19390;51.460;5.710;2023-08-24T13:39:43;25.00;99.90
33023;DHT22;19390;51.460;5.710;2023-08-24T13:42:09;25.00;99.90
33023;DHT22;19390;51.460;5.710;2023-08-24T13:44:34;24.90;99.90
33023;DHT22;19390;51.460;5.710;2023-08-24T13:47:00;24.80;99.90
33023;DHT22;19390;51.460;5.710;2023-08-24T13:49:26;24.60;99.90
33023;DHT22;19390;51.460;5.710;2023-08-24T13:51:51;24.40;99.90
33023;DHT22;19390;51.460;5.710;2023-08-24T13:54:18;24.40;99.90
33023;DHT22;19390;51.460;5.710;2023-08-24T13:56:45;24.30;99.90
33023;DHT22;19390;51.460;5.710;2023-08-24T13:59:13;24.10;99.90
33023;DHT22;19390;51.460;5.710;2023-08-24T14:01:40;24.10;99.90
33023;DHT22;19390;51.460;5.710;2023-08-24T14:04:05;24.10;99.90
33023;DHT22;19390;51.460;5.710;2023-08-24T14:06:32;24.00;99.90
33023;DHT22;19390;51.460;5.710;2023-08-24T14:08:59;23.90;99.90
33023;DHT22;19390;51.460;5.710;2023-08-24T14:11:24;24.00;99.90
33023;DHT22;19390;51.460;5.710;2023-08-24T14:13:50;24.00;99.90
33023;DHT22;19390;51.460;5.710;2023-08-24T14:16:17;24.00;99.90
33023;DHT22;19390;51.460;5.710;2023-08-24T14:18:44;23.90;99.90
33023;DHT22;19390;51.460;5.710;2023-08-24T14:21:10;23.70;99.90
33023;DHT22;19390;51.460;5.710;2023-08-24T14:23:35;23.70;99.90
33023;DHT22;19390;51.460;5.710;2023-08-24T14:26:01;23.60;99.90
33023;DHT22;19390;51.460;5.710;2023-08-24T14:28:56;23.50;99.90
33023;DHT22;19390;51.460;5.710;2023-08-24T14:31:24;23.40;99.90
33023;DHT22;19390;51.460;5.710;2023-08-24T14:33:50;23.30;99.90
33023;DHT22;19390;51.460;5.710;2023-08-24T14:36:17;23.30;99.90
33023;DHT22;19390;51.460;5.710;2023-08-24T14:38:43;23.20;99.90
33023;DHT22;19390;51.460;5.710;2023-08-24T14:41:09;23.20;99.90
33023;DHT22;19390;51.460;5.710;2023-08-24T14:43:35;23.10;99.90
33023;DHT22;19390;51.460;5.710;2023-08-24T14:46:01;23.10;99.90
33023;DHT22;19390;51.460;5.710;2023-08-24T14:48:26;23.10;99.90
33023;DHT22;19390;51.460;5.710;2023-08-24T14:50:52;23.10;99.90
33023;DHT22;19390;51.460;5.710;2023-08-24T14:53:18;23.00;99.90
33023;DHT22;19390;51.460;5.710;2023-08-24T14:55:43;23.20;99.90
33023;DHT22;19390;51.460;5.710;2023-08-24T14:58:09;23.20;99.90
33023;DHT22;19390;51.460;5.710;2023-08-24T15:00:35;23.00;99.90
33023;DHT22;19390;51.460;5.710;2023-08-24T15:03:00;23.00;99.90
33023;DHT22;19390;51.460;5.710;2023-08-24T15:05:26;23.10;99.90
33023;DHT22;19390;51.460;5.710;2023-08-24T15:07:52;23.20;99.90
33023;DHT22;19390;51.460;5.710;2023-08-24T15:10:18;23.00;99.90
33023;DHT22;19390;51.460;5.710;2023-08-24T15:12:46;22.80;99.90
33023;DHT22;19390;51.460;5.710;2023-08-24T15:15:12;22.70;99.90
33023;DHT22;19390;51.460;5.710;2023-08-24T15:17:43;22.80;99.90
33023;DHT22;19390;51.460;5.710;2023-08-24T15:20:10;22.70;99.90
33023;DHT22;19390;51.460;5.710;2023-08-24T15:22:38;22.60;99.90
33023;DHT22;19390;51.460;5.710;2023-08-24T15:25:05;22.60;99.90
33023;DHT22;19390;51.460;5.710;2023-08-24T15:27:31;22.50;99.90